Time;durP1;ratioP1;P1;durP2;ratioP2;P2;SDS_P1;SDS_P2;PMS_P1;PMS_P2;Temp;Humidity;BMP_temperature;BMP_pressure;BME280_temperature;BME280_humidity;BME280_pressure;Samples;Min_cycle;Max_cycle;Signal;HPM_P1;HPM_P2
2021/08/14 00:01:04;;;;;;;;;0.00;0.00;;;;;27.93;41.31;101509.47;5076729;28;45587;-65
2021/08/14 00:03:30;;;;;;;;;0.00;0.00;;;;;27.93;40.87;101510.38;5076775;27;45678;-65
2021/08/14 00:05:56;;;;;;;;;0.00;0.00;;;;;27.91;40.97;101511.41;5076070;28;45973;-65
2021/08/14 00:08:28;;;;;;;;;0.00;0.00;;;;;27.91;41.13;101515.03;5075476;28;44877;-65
2021/08/14 00:10:53;;;;;;;;;0.00;0.00;;;;;27.92;40.60;101516.81;5058202;28;45616;-66
2021/08/14 00:13:18;;;;;;;;;0.00;0.00;;;;;27.91;41.00;101514.13;5076511;28;44823;-65
2021/08/14 00:15:44;;;;;;;;;0.00;0.00;;;;;27.90;41.43;101507.78;5076358;28;45474;-65
2021/08/14 00:18:09;;;;;;;;;0.00;0.00;;;;;27.91;40.79;101500.47;5058301;28;45446;-65
2021/08/14 00:20:35;;;;;;;;;0.00;0.00;;;;;27.88;40.78;101497.88;5076136;28;45486;-66
2021/08/14 00:23:00;;;;;;;;;0.00;0.00;;;;;27.90;41.10;101512.38;5075347;28;45843;-66
2021/08/14 00:25:29;;;;;;;;;0.00;0.00;;;;;27.89;41.30;101502.38;5075868;28;45400;-66
2021/08/14 00:27:56;;;;;;;;;0.00;0.00;;;;;27.88;40.79;101506.09;5075737;28;45428;-65
2021/08/14 00:30:22;;;;;;;;;0.00;0.00;;;;;27.86;41.33;101499.78;5076221;28;45892;-65
2021/08/14 00:32:47;;;;;;;;;0.00;0.00;;;;;27.87;40.62;101498.81;5076077;28;45452;-65
2021/08/14 00:35:13;;;;;;;;;0.00;0.00;;;;;27.87;41.42;101493.38;5075756;28;46002;-65
2021/08/14 00:37:38;;;;;;;;;0.00;0.00;;;;;27.86;40.77;101506.13;5076011;28;45429;-65
2021/08/14 00:40:05;;;;;;;;;0.00;0.00;;;;;27.83;40.69;101502.63;5076094;28;45438;-65
2021/08/14 00:42:31;;;;;;;;;0.00;0.00;;;;;27.84;41.26;101507.16;5075885;28;45491;-65
2021/08/14 00:45:00;;;;;;;;;0.00;0.00;;;;;27.84;40.88;101501.69;5075961;28;45139;-65
2021/08/14 00:47:25;;;;;;;;;0.00;0.00;;;;;27.83;41.50;101505.38;5075962;28;45822;-65
2021/08/14 00:49:52;;;;;;;;;0.00;0.00;;;;;27.78;40.89;101501.97;5075604;28;45540;-65
2021/08/14 00:52:19;;;;;;;;;0.00;0.00;;;;;27.82;40.85;101506.34;5057571;28;45490;-65
2021/08/14 00:54:44;;;;;;;;;0.00;0.00;;;;;27.80;40.93;101506.41;5075416;28;45392;-65
2021/08/14 00:57:10;;;;;;;;;0.00;0.00;;;;;27.80;40.92;101506.41;5057421;28;45486;-65
2021/08/14 00:59:36;;;;;;;;;0.00;0.00;;;;;27.80;41.41;101505.53;5075660;28;45436;-65
2021/08/14 01:02:03;;;;;;;;;0.00;0.00;;;;;27.80;41.55;101505.53;5075982;27;45440;-65
2021/08/14 01:04:30;;;;;;;;;0.00;0.00;;;;;27.78;40.91;101501.97;5057288;28;47229;-65
2021/08/14 01:07:01;;;;;;;;;0.00;0.00;;;;;27.76;41.55;101499.31;5056706;28;45840;-65
2021/08/14 01:09:28;;;;;;;;;0.00;0.00;;;;;27.77;41.21;101506.53;5075690;28;45497;-65
2021/08/14 01:11:55;;;;;;;;;0.00;0.00;;;;;27.76;41.37;101498.41;5075568;28;45789;-65
2021/08/14 01:14:21;;;;;;;;;0.00;0.00;;;;;27.76;40.95;101503.88;5074921;28;45519;-65
2021/08/14 01:16:48;;;;;;;;;0.00;0.00;;;;;27.70;41.51;101486.81;5075328;28;45562;-65
2021/08/14 01:19:14;;;;;;;;;0.00;0.00;;;;;27.74;41.00;101502.09;5075452;28;44918;-65
2021/08/14 01:21:48;;;;;;;;;0.00;0.00;;;;;27.72;41.71;101498.53;5075387;28;45474;-65
2021/08/14 01:24:13;;;;;;;;;0.00;0.00;;;;;27.73;41.09;101492.13;5075175;28;46180;-65
2021/08/14 01:26:41;;;;;;;;;0.00;0.00;;;;;27.72;41.59;101487.63;5075084;28;45433;-65
2021/08/14 01:29:08;;;;;;;;;0.00;0.00;;;;;27.73;40.93;101492.13;5075036;28;45458;-65
2021/08/14 01:31:34;;;;;;;;;0.00;0.00;;;;;27.72;40.97;101475.81;5075415;28;45753;-65
2021/08/14 01:33:59;;;;;;;;;0.00;0.00;;;;;27.72;41.43;101484.00;5074643;28;45983;-65
2021/08/14 01:36:25;;;;;;;;;0.00;0.00;;;;;27.71;41.01;101487.69;5074590;28;45528;-65
2021/08/14 01:38:56;;;;;;;;;0.00;0.00;;;;;27.71;41.80;101479.47;5075019;28;45485;-65
2021/08/14 01:41:23;;;;;;;;;0.00;0.00;;;;;27.70;41.74;101489.53;5075406;28;45434;-65
2021/08/14 01:44:10;;;;;;;;;0.00;0.00;;;;;27.68;41.60;101485.97;5074603;28;46571;-65
2021/08/14 01:46:41;;;;;;;;;0.00;0.00;;;;;27.69;41.54;101479.56;5074603;28;45494;-65
2021/08/14 01:49:07;;;;;;;;;0.00;0.00;;;;;27.67;41.04;101481.50;5075412;28;45480;-65
2021/08/14 01:51:32;;;;;;;;;0.00;0.00;;;;;27.67;41.79;101480.56;5074282;28;45500;-65
2021/08/14 01:54:00;;;;;;;;;0.00;0.00;;;;;27.66;41.06;101476.97;5074945;28;45850;-65
2021/08/14 01:56:27;;;;;;;;;0.00;0.00;;;;;27.66;41.22;101476.97;5074512;28;45472;-65
2021/08/14 01:58:53;;;;;;;;;0.00;0.00;;;;;27.66;40.91;101476.97;5074537;28;45553;-65
2021/08/14 02:01:19;;;;;;;;;0.00;0.00;;;;;27.66;41.07;101471.50;5074787;28;45416;-65
2021/08/14 02:03:47;;;;;;;;;0.00;0.00;;;;;27.65;41.01;101469.75;5056415;28;47053;-65
2021/08/14 02:06:13;;;;;;;;;0.00;0.00;;;;;27.65;41.76;101474.28;5074487;28;45564;-65
2021/08/14 02:08:39;;;;;;;;;0.00;0.00;;;;;27.64;41.09;101475.28;5073747;28;45848;-65
2021/08/14 02:11:19;;;;;;;;;0.00;0.00;;;;;27.63;41.78;101470.75;5074711;28;45444;-65
2021/08/14 02:13:48;;;;;;;;;0.00;0.00;;;;;27.60;41.07;101463.59;5074307;28;46273;-65
2021/08/14 02:16:16;;;;;;;;;0.00;0.00;;;;;27.62;41.63;101469.88;5074220;28;45831;-65
2021/08/14 02:18:41;;;;;;;;;0.00;0.00;;;;;27.60;41.64;101462.72;5075028;28;45739;-65
2021/08/14 02:21:08;;;;;;;;;0.00;0.00;;;;;27.61;41.70;101461.72;5074409;28;45468;-65
2021/08/14 02:23:34;;;;;;;;;0.00;0.00;;;;;27.60;41.43;101460.84;5055970;28;46303;-65
2021/08/14 02:26:00;;;;;;;;;0.00;0.00;;;;;27.57;41.26;101455.53;5074005;28;45399;-66
2021/08/14 02:28:28;;;;;;;;;0.00;0.00;;;;;27.59;41.95;101463.66;5074460;28;45559;-65
2021/08/14 02:30:54;;;;;;;;;0.00;0.00;;;;;27.58;41.78;101456.44;5074657;28;45358;-65
2021/08/14 02:33:19;;;;;;;;;0.00;0.00;;;;;27.59;40.94;101458.19;5073989;28;45530;-65
2021/08/14 02:35:45;;;;;;;;;0.00;0.00;;;;;27.58;41.47;101457.31;5074393;28;44791;-65
2021/08/14 02:38:10;;;;;;;;;0.00;0.00;;;;;27.55;41.49;101451.97;5074257;28;45863;-65
2021/08/14 02:40:36;;;;;;;;;0.00;0.00;;;;;27.58;41.16;101451.84;5056034;28;45461;-65
2021/08/14 02:43:05;;;;;;;;;0.00;0.00;;;;;27.57;41.86;101452.81;5073991;28;45822;-65
2021/08/14 02:45:31;;;;;;;;;0.00;0.00;;;;;27.56;41.21;101445.56;5057507;28;45358;-65
2021/08/14 02:47:57;;;;;;;;;0.00;0.00;;;;;27.55;41.72;101446.50;5077899;28;45375;-65
2021/08/14 02:50:23;;;;;;;;;0.00;0.00;;;;;27.58;41.67;101453.69;5059457;28;45446;-65
2021/08/14 02:52:49;;;;;;;;;0.00;0.00;;;;;27.56;41.34;101452.88;5077240;28;45530;-65
2021/08/14 02:55:15;;;;;;;;;0.00;0.00;;;;;27.56;41.61;101442.81;5078019;28;45457;-65
2021/08/14 02:57:40;;;;;;;;;0.00;0.00;;;;;27.53;41.19;101441.13;5077878;28;45449;-65
2021/08/14 03:00:07;;;;;;;;;0.00;0.00;;;;;27.57;42.04;101440.97;5077654;28;45571;-65
2021/08/14 03:02:32;;;;;;;;;0.00;0.00;;;;;27.56;41.79;101437.34;5077292;27;45488;-65
2021/08/14 03:04:57;;;;;;;;;0.00;0.00;;;;;27.54;41.52;101436.53;5077417;28;45436;-65
2021/08/14 03:07:23;;;;;;;;;0.00;0.00;;;;;27.55;41.69;101435.56;5058130;28;45645;-65
2021/08/14 03:09:48;;;;;;;;;0.00;0.00;;;;;27.53;41.68;101430.19;5077540;28;45366;-65
2021/08/14 03:12:13;;;;;;;;;0.00;0.00;;;;;27.53;41.67;101427.47;5077126;28;45402;-65
2021/08/14 03:14:39;;;;;;;;;0.00;0.00;;;;;27.53;41.26;101426.56;5076936;28;45757;-65
2021/08/14 03:17:05;;;;;;;;;0.00;0.00;;;;;27.54;41.84;101425.63;5077276;28;45402;-65
2021/08/14 03:19:31;;;;;;;;;0.00;0.00;;;;;27.53;41.55;101424.72;5077553;28;45811;-65
2021/08/14 03:21:57;;;;;;;;;0.00;0.00;;;;;27.53;41.26;101422.00;5076999;28;46195;-65
2021/08/14 03:24:23;;;;;;;;;0.00;0.00;;;;;27.52;41.82;101430.25;5058724;28;45405;-65
2021/08/14 03:26:49;;;;;;;;;0.00;0.00;;;;;27.52;41.37;101427.53;5077122;28;45387;-65
2021/08/14 03:29:14;;;;;;;;;0.00;0.00;;;;;27.52;41.87;101427.53;5077264;28;45484;-65
2021/08/14 03:31:40;;;;;;;;;0.00;0.00;;;;;27.52;41.71;101424.78;5076760;28;46515;-65
2021/08/14 03:34:05;;;;;;;;;0.00;0.00;;;;;27.50;41.75;101413.94;5076810;28;45546;-65
2021/08/14 03:36:30;;;;;;;;;0.00;0.00;;;;;27.51;41.38;101423.00;5058974;28;45883;-65
2021/08/14 03:38:55;;;;;;;;;0.00;0.00;;;;;27.50;41.67;101421.25;5077012;28;45489;-65
2021/08/14 03:41:21;;;;;;;;;1.00;0.00;;;;;27.46;41.59;101412.31;5076690;28;45445;-65
2021/08/14 03:43:48;;;;;;;;;0.00;0.00;;;;;27.47;41.66;101415.91;5076801;28;45807;-65
2021/08/14 03:46:13;;;;;;;;;0.00;0.00;;;;;27.47;41.60;101416.81;5076130;28;45432;-65
2021/08/14 03:48:38;;;;;;;;;0.00;0.00;;;;;27.45;41.12;101416.00;5076990;28;45471;-65
2021/08/14 03:51:04;;;;;;;;;0.00;0.00;;;;;27.44;41.40;101413.34;5058216;28;45746;-65
2021/08/14 03:53:31;;;;;;;;;0.00;0.00;;;;;27.44;41.52;101413.34;5076646;28;45366;-65
2021/08/14 03:55:56;;;;;;;;;0.00;0.00;;;;;27.42;41.10;101407.06;5076540;28;45510;-66
2021/08/14 03:58:22;;;;;;;;;0.00;0.00;;;;;27.41;41.52;101408.91;5076564;28;45428;-65
2021/08/14 04:00:47;;;;;;;;;0.33;0.33;;;;;27.41;41.64;101406.19;5076719;28;45398;-65
2021/08/14 04:03:12;;;;;;;;;0.00;0.00;;;;;27.40;41.69;101398.94;5076612;27;45500;-65
2021/08/14 04:05:38;;;;;;;;;0.00;0.00;;;;;27.41;41.22;101405.25;5076639;28;45409;-65
2021/08/14 04:08:03;;;;;;;;;0.00;0.00;;;;;27.38;40.96;101397.22;5075653;28;45385;-65
2021/08/14 04:10:36;;;;;;;;;0.00;0.00;;;;;27.37;41.65;101398.16;5058059;28;48241;-65
2021/08/14 04:13:01;;;;;;;;;0.00;0.00;;;;;27.39;41.21;101401.72;5058400;28;45442;-65
2021/08/14 04:15:29;;;;;;;;;0.00;0.00;;;;;27.37;41.19;101396.34;5076265;28;45677;-65
2021/08/14 04:17:55;;;;;;;;;0.00;0.00;;;;;27.38;41.48;101399.97;5058193;28;45629;-65
2021/08/14 04:20:20;;;;;;;;;0.00;0.00;;;;;27.36;41.11;101390.94;5057958;28;47443;-65
2021/08/14 04:22:46;;;;;;;;;0.00;0.00;;;;;27.34;41.07;101389.16;5076168;28;45508;-65
2021/08/14 04:25:11;;;;;;;;;0.00;0.00;;;;;27.34;41.44;101388.28;5076359;28;45460;-65
2021/08/14 04:27:36;;;;;;;;;0.67;0.00;;;;;27.33;41.10;101392.88;5057991;28;45492;-65
2021/08/14 04:30:04;;;;;;;;;0.67;0.00;;;;;27.33;41.54;101392.00;5075882;28;45576;-65
2021/08/14 04:32:34;;;;;;;;;0.00;0.00;;;;;27.33;41.50;101389.25;5076069;28;45425;-65
2021/08/14 04:35:02;;;;;;;;;0.00;0.00;;;;;27.33;41.47;101392.00;5076124;28;45563;-65
2021/08/14 04:37:27;;;;;;;;;0.00;0.00;;;;;27.31;40.99;101394.78;5076072;28;45440;-65
2021/08/14 04:39:53;;;;;;;;;0.00;0.00;;;;;27.31;41.41;101388.44;5075528;28;45453;-66
2021/08/14 04:42:19;;;;;;;;;0.00;0.00;;;;;27.31;41.60;101391.16;5076016;28;45385;-65
2021/08/14 04:44:45;;;;;;;;;0.00;0.00;;;;;27.30;41.78;101383.91;5076026;28;44904;-65
2021/08/14 04:47:10;;;;;;;;;0.00;0.00;;;;;27.30;41.53;101386.66;5076143;28;45602;-65
2021/08/14 04:49:35;;;;;;;;;0.00;0.00;;;;;27.28;41.59;101383.97;5075666;28;45423;-65
2021/08/14 04:52:00;;;;;;;;;0.67;0.00;;;;;27.29;41.13;101380.31;5075971;28;45633;-65
2021/08/14 04:54:27;;;;;;;;;0.33;0.00;;;;;27.29;41.30;101380.31;5057613;28;45501;-65
2021/08/14 04:56:52;;;;;;;;;0.00;0.00;;;;;27.28;41.19;101377.63;5076098;28;45413;-65
2021/08/14 04:59:18;;;;;;;;;1.67;0.67;;;;;27.28;41.64;101383.97;5056984;28;46884;-65
2021/08/14 05:01:43;;;;;;;;;0.00;0.00;;;;;27.28;41.10;101375.78;5075712;28;45385;-65
2021/08/14 05:04:15;;;;;;;;;0.00;0.00;;;;;27.28;41.42;101373.06;5075989;28;45392;-65
2021/08/14 05:06:41;;;;;;;;;0.00;0.00;;;;;27.28;41.12;101377.63;5075811;28;45669;-65
2021/08/14 05:09:06;;;;;;;;;0.00;0.00;;;;;27.27;40.93;101379.50;5073774;28;45857;-65
2021/08/14 05:11:32;;;;;;;;;0.00;0.00;;;;;27.27;41.15;101382.22;5075623;28;45394;-65
2021/08/14 05:13:57;;;;;;;;;0.00;0.00;;;;;27.26;41.63;101377.69;5075618;28;45398;-65
2021/08/14 05:16:25;;;;;;;;;0.00;0.00;;;;;27.28;41.07;101383.09;5075304;28;45331;-65
2021/08/14 05:18:54;;;;;;;;;0.00;0.00;;;;;27.27;41.46;101382.22;5057018;28;46293;-65
2021/08/14 05:21:27;;;;;;;;;0.00;0.00;;;;;27.27;41.50;101381.34;5075155;28;45385;-65
2021/08/14 05:23:52;;;;;;;;;0.00;0.00;;;;;27.27;41.53;101387.69;5075072;28;45549;-65
2021/08/14 05:26:17;;;;;;;;;0.00;0.00;;;;;27.26;41.25;101385.91;5075228;28;45456;-65
2021/08/14 05:28:44;;;;;;;;;0.00;0.00;;;;;27.26;41.04;101391.34;5075355;28;45394;-66
2021/08/14 05:31:09;;;;;;;;;1.67;0.00;;;;;27.27;41.48;101395.88;5075121;28;45385;-65
2021/08/14 05:33:34;;;;;;;;;0.00;0.00;;;;;27.25;41.58;101392.31;5075259;28;45628;-65
2021/08/14 05:36:00;;;;;;;;;0.00;0.00;;;;;27.27;41.39;101395.88;5075324;28;45455;-65
2021/08/14 05:38:25;;;;;;;;;0.67;0.00;;;;;27.26;41.53;101393.22;5074844;28;46717;-65
2021/08/14 05:40:50;;;;;;;;;0.00;0.00;;;;;27.27;40.78;101395.88;5075060;28;45386;-65
2021/08/14 05:43:16;;;;;;;;;0.00;0.00;;;;;27.28;41.27;101400.38;5075140;28;45436;-65
2021/08/14 05:45:41;;;;;;;;;1.67;0.00;;;;;27.26;41.53;101404.13;5056886;28;45473;-65
2021/08/14 05:48:07;;;;;;;;;0.00;0.00;;;;;27.28;41.45;101403.09;5074898;28;45854;-65
2021/08/14 05:50:33;;;;;;;;;0.00;0.00;;;;;27.28;41.47;101404.94;5075077;28;45357;-65
2021/08/14 05:53:00;;;;;;;;;0.00;0.00;;;;;27.30;41.45;101408.50;5075116;28;45362;-65
2021/08/14 05:55:25;;;;;;;;;0.67;0.67;;;;;27.29;41.14;101410.34;5074453;28;45432;-65
2021/08/14 05:57:53;;;;;;;;;0.00;0.00;;;;;27.31;40.91;101413.03;5074717;28;45486;-65
2021/08/14 06:00:19;;;;;;;;;0.00;0.00;;;;;27.31;41.39;101407.56;5056879;28;45670;-65
2021/08/14 06:02:45;;;;;;;;;0.00;0.00;;;;;27.32;41.43;101412.94;5075016;28;45413;-65
2021/08/14 06:05:12;;;;;;;;;0.00;0.00;;;;;27.33;41.36;101413.84;5074776;28;45310;-66
2021/08/14 06:07:37;;;;;;;;;1.00;0.00;;;;;27.31;40.82;101411.16;5073165;28;45509;-65
2021/08/14 06:10:05;;;;;;;;;0.33;0.33;;;;;27.36;41.27;101418.25;5074740;28;44765;-65
2021/08/14 06:12:31;;;;;;;;;0.00;0.00;;;;;27.36;41.01;101418.25;5074697;28;45467;-65
2021/08/14 06:14:56;;;;;;;;;0.00;0.00;;;;;27.38;41.19;101421.81;5074958;28;45729;-65
2021/08/14 06:17:21;;;;;;;;;0.00;0.00;;;;;27.38;41.15;101422.69;5074463;28;45608;-65
2021/08/14 06:19:47;;;;;;;;;0.00;0.00;;;;;27.41;40.60;101421.66;5074377;28;45482;-65
2021/08/14 06:22:12;;;;;;;;;0.00;0.00;;;;;27.42;41.15;101423.44;5078301;28;45453;-65
2021/08/14 06:24:38;;;;;;;;;0.33;0.33;;;;;27.44;40.79;101419.69;5078262;28;45311;-65
2021/08/14 06:27:03;;;;;;;;;0.00;0.00;;;;;27.47;41.25;101418.66;5078015;28;46015;-65
2021/08/14 06:29:29;;;;;;;;;0.00;0.00;;;;;27.47;41.14;101415.91;5078118;28;45446;-66
2021/08/14 06:31:54;;;;;;;;;0.00;0.00;;;;;27.49;40.55;101422.19;5078008;28;45391;-65
2021/08/14 06:34:20;;;;;;;;;0.00;0.00;;;;;27.50;40.93;101422.13;5078106;28;45358;-65
2021/08/14 06:36:45;;;;;;;;;0.00;0.00;;;;;27.53;40.39;101423.81;5077783;28;46088;-66
2021/08/14 06:39:11;;;;;;;;;0.00;0.00;;;;;27.56;40.27;101420.97;5077897;28;45709;-65
2021/08/14 06:41:37;;;;;;;;;0.00;0.00;;;;;27.58;40.41;101419.06;5077934;28;45375;-65
2021/08/14 06:44:02;;;;;;;;;1.67;0.00;;;;;27.60;40.91;101413.53;5078121;28;45413;-65
2021/08/14 06:46:28;;;;;;;;;0.00;0.00;;;;;27.61;40.49;101418.00;5077416;28;45408;-66
2021/08/14 06:48:53;;;;;;;;;0.00;0.00;;;;;27.63;40.51;101425.19;5077541;28;45448;-65
2021/08/14 06:51:19;;;;;;;;;0.00;0.00;;;;;27.64;40.58;101416.03;5078099;28;45687;-65
2021/08/14 06:53:44;;;;;;;;;0.00;0.00;;;;;27.66;40.44;101416.84;5077759;28;45476;-65
2021/08/14 06:56:10;;;;;;;;;0.00;0.00;;;;;27.67;40.94;101421.38;5077434;28;45525;-65
2021/08/14 06:58:35;;;;;;;;;0.00;0.00;;;;;27.70;40.40;101428.53;5077521;28;45520;-65
2021/08/14 07:01:01;;;;;;;;;0.67;0.00;;;;;27.71;40.40;101428.47;5077536;28;45495;-65
2021/08/14 07:03:27;;;;;;;;;0.00;0.00;;;;;27.71;40.73;101420.25;5077753;27;45460;-65
2021/08/14 07:05:52;;;;;;;;;0.00;0.00;;;;;27.74;40.55;101425.56;5077187;28;45585;-65
2021/08/14 07:08:18;;;;;;;;;2.67;0.00;;;;;27.76;40.19;101421.88;5076055;28;45580;-65
2021/08/14 07:10:43;;;;;;;;;0.00;0.00;;;;;27.78;40.73;101425.44;5077498;28;45428;-65
2021/08/14 07:13:09;;;;;;;;;0.00;0.00;;;;;27.81;40.07;101419.81;5077784;28;45386;-65
2021/08/14 07:15:35;;;;;;;;;0.00;0.00;;;;;27.82;40.04;101421.59;5077049;28;45412;-65
2021/08/14 07:18:01;;;;;;;;;0.00;0.00;;;;;27.83;40.47;101424.22;5077289;28;45634;-65
2021/08/14 07:20:27;;;;;;;;;0.00;0.00;;;;;27.82;40.03;101422.47;5077513;28;45827;-65
2021/08/14 07:22:52;;;;;;;;;0.00;0.00;;;;;27.87;40.13;101425.03;5077427;28;45437;-65
2021/08/14 07:25:17;;;;;;;;;0.00;0.00;;;;;27.88;40.19;101424.94;5076892;28;46407;-65
2021/08/14 07:27:43;;;;;;;;;0.67;0.00;;;;;27.90;40.46;101419.41;5077293;28;45373;-65
2021/08/14 07:30:09;;;;;;;;;0.33;0.33;;;;;27.91;40.03;101416.63;5077173;28;45347;-65
2021/08/14 07:32:36;;;;;;;;;0.67;0.00;;;;;27.92;40.39;101412.03;5077268;28;45482;-65
2021/08/14 07:35:01;;;;;;;;;0.00;0.00;;;;;27.95;40.42;101417.34;5076851;28;46049;-65
2021/08/14 07:37:28;;;;;;;;;0.00;0.00;;;;;27.97;39.94;101414.53;5076938;28;45491;-65
2021/08/14 07:39:54;;;;;;;;;0.00;0.00;;;;;27.98;39.70;101406.25;5076983;28;45475;-65
2021/08/14 07:42:20;;;;;;;;;0.00;0.00;;;;;28.01;40.18;101411.56;5077257;28;44867;-65
2021/08/14 07:44:45;;;;;;;;;0.00;0.00;;;;;28.00;39.79;101407.09;5076803;28;45592;-65
2021/08/14 07:47:10;;;;;;;;;0.00;0.00;;;;;28.03;40.04;101409.66;5076849;28;45457;-65
2021/08/14 07:49:36;;;;;;;;;0.00;0.00;;;;;28.04;40.11;101403.22;5076515;28;45409;-65
2021/08/14 07:52:03;;;;;;;;;0.00;0.00;;;;;28.05;40.12;101407.72;5077101;28;45786;-65
2021/08/14 07:54:28;;;;;;;;;0.00;0.00;;;;;28.05;39.97;101399.53;5076543;28;45373;-65
2021/08/14 07:56:55;;;;;;;;;0.00;0.00;;;;;28.09;39.72;101403.88;5076615;28;45405;-65
2021/08/14 07:59:21;;;;;;;;;0.00;0.00;;;;;28.09;39.96;101401.16;5076550;28;45501;-65
2021/08/14 08:01:46;;;;;;;;;0.00;0.00;;;;;28.13;39.70;101400.03;5076603;27;45437;-65
2021/08/14 08:04:11;;;;;;;;;0.00;0.00;;;;;28.17;40.17;101400.78;5058449;28;45590;-65
2021/08/14 08:06:37;;;;;;;;;0.67;0.00;;;;;28.18;39.48;101398.91;5076370;28;45412;-65
2021/08/14 08:09:02;;;;;;;;;0.00;0.00;;;;;28.19;39.23;101387.03;5075232;28;45818;-65
2021/08/14 08:11:27;;;;;;;;;0.00;0.00;;;;;28.21;39.87;101394.19;5076656;28;45417;-65
2021/08/14 08:13:53;;;;;;;;;0.00;0.00;;;;;28.24;39.44;101394.06;5076226;28;45457;-65
2021/08/14 08:16:19;;;;;;;;;0.00;0.00;;;;;28.25;39.54;101393.06;5076377;28;45412;-65
2021/08/14 08:18:45;;;;;;;;;0.00;0.00;;;;;28.26;39.21;101392.13;5076648;28;45451;-65
2021/08/14 08:21:10;;;;;;;;;0.00;0.00;;;;;28.28;39.52;101392.94;5076653;28;45400;-65
2021/08/14 08:23:36;;;;;;;;;0.00;0.00;;;;;28.30;39.45;101393.75;5075954;28;45468;-65
2021/08/14 08:26:01;;;;;;;;;0.00;0.00;;;;;28.32;39.38;101396.41;5057736;28;45446;-65
2021/08/14 08:28:27;;;;;;;;;0.00;0.00;;;;;28.35;39.97;101388.03;5057892;28;45300;-65
2021/08/14 08:30:53;;;;;;;;;0.00;0.00;;;;;28.37;39.71;101390.69;5076458;28;45507;-65
2021/08/14 08:33:18;;;;;;;;;0.00;0.00;;;;;28.37;39.32;101390.69;5076087;28;45488;-65
2021/08/14 08:35:44;;;;;;;;;0.00;0.00;;;;;28.38;39.51;101387.91;5076068;28;45334;-65
2021/08/14 08:38:09;;;;;;;;;0.00;0.00;;;;;28.41;39.62;101393.19;5075922;28;45507;-65
2021/08/14 08:40:38;;;;;;;;;0.00;0.00;;;;;28.41;39.33;101386.84;5076243;28;45435;-65
2021/08/14 08:43:05;;;;;;;;;0.00;0.00;;;;;28.42;39.66;101389.50;5074639;28;45456;-65
2021/08/14 08:45:31;;;;;;;;;0.00;0.00;;;;;28.44;39.18;101381.19;5075735;28;45432;-65
2021/08/14 08:47:57;;;;;;;;;0.00;0.00;;;;;28.48;39.36;101388.28;5076078;28;45463;-65
2021/08/14 08:50:26;;;;;;;;;0.00;0.00;;;;;28.40;38.79;101361.34;5076211;28;45412;-65
2021/08/14 08:52:52;;;;;;;;;0.00;0.00;;;;;28.49;39.04;101371.81;5075725;28;45488;-65
2021/08/14 08:55:21;;;;;;;;;0.00;0.00;;;;;28.50;38.86;101375.44;5075670;28;45540;-66
2021/08/14 08:57:46;;;;;;;;;0.00;0.00;;;;;28.52;39.21;101374.44;5075718;28;45441;-65
2021/08/14 09:00:15;;;;;;;;;0.00;0.00;;;;;28.51;38.93;101364.44;5075977;28;45451;-65
2021/08/14 09:02:42;;;;;;;;;0.00;0.00;;;;;28.56;39.08;101374.25;5075406;27;45507;-65
2021/08/14 09:05:08;;;;;;;;;0.00;0.00;;;;;28.55;38.90;101367.91;5057317;28;45473;-65
2021/08/14 09:07:33;;;;;;;;;0.00;0.00;;;;;28.58;38.94;101369.59;5075591;28;45537;-65
2021/08/14 09:10:01;;;;;;;;;0.00;0.00;;;;;28.59;38.97;101374.13;5074482;28;45531;-66
2021/08/14 09:12:41;;;;;;;;;0.00;0.00;;;;;28.61;39.05;101366.72;5075507;28;45776;-65
2021/08/14 09:15:16;;;;;;;;;0.00;0.00;;;;;28.62;38.52;101365.72;5075416;28;45437;-65
2021/08/14 09:17:42;;;;;;;;;0.00;0.00;;;;;28.61;38.95;101369.44;5075717;28;45471;-65
2021/08/14 09:20:07;;;;;;;;;0.00;0.00;;;;;28.64;38.99;101366.53;5074129;28;45542;-66
2021/08/14 09:22:33;;;;;;;;;0.67;0.67;;;;;28.65;38.67;101369.19;5075188;28;45483;-65
2021/08/14 09:25:19;;;;;;;;;0.00;0.00;;;;;28.67;38.63;101366.41;5075145;28;45397;-65
2021/08/14 09:27:56;;;;;;;;;0.00;0.00;;;;;28.68;38.76;101369.06;5075610;28;45418;-65
2021/08/14 09:30:42;;;;;;;;;0.00;0.00;;;;;28.70;38.66;101360.75;5057050;28;45431;-65
2021/08/14 09:33:09;;;;;;;;;0.00;0.00;;;;;28.70;38.85;101360.75;5075154;28;45390;-65
2021/08/14 09:35:35;;;;;;;;;0.00;0.00;;;;;28.72;38.83;101361.53;5074934;28;45542;-65
2021/08/14 09:38:06;;;;;;;;;0.00;0.00;;;;;28.71;38.70;101362.53;5075188;28;45529;-65
2021/08/14 09:40:43;;;;;;;;;0.00;0.00;;;;;28.73;38.55;101368.81;5075059;28;45445;-65
2021/08/14 09:43:09;;;;;;;;;0.00;0.00;;;;;28.75;38.87;101366.00;5074861;28;46108;-65
2021/08/14 09:45:35;;;;;;;;;0.00;0.00;;;;;28.75;39.07;101358.66;5074684;28;45544;-65
2021/08/14 09:48:19;;;;;;;;;0.00;0.00;;;;;28.77;38.53;101362.22;5075081;28;45496;-65
2021/08/14 09:50:44;;;;;;;;;0.00;0.00;;;;;28.78;38.79;101354.88;5056799;28;45474;-65
2021/08/14 09:53:15;;;;;;;;;0.00;0.00;;;;;28.79;38.62;101357.53;5074398;28;45482;-66
2021/08/14 09:55:41;;;;;;;;;0.00;0.00;;;;;28.80;38.56;101359.28;5074867;28;45703;-67
2021/08/14 09:58:09;;;;;;;;;0.00;0.00;;;;;28.82;38.63;101353.75;5076198;28;45498;-66
2021/08/14 10:00:38;;;;;;;;;0.00;0.00;;;;;28.82;38.85;101354.63;5075809;28;45539;-66
2021/08/14 10:03:03;;;;;;;;;0.67;0.00;;;;;28.83;38.91;101359.16;5074926;28;45543;-65
2021/08/14 10:05:33;;;;;;;;;0.67;0.00;;;;;28.84;38.52;101352.69;5074680;28;45744;-65
2021/08/14 10:08:02;;;;;;;;;0.00;0.00;;;;;28.83;38.44;101342.72;5074282;28;45438;-65
2021/08/14 10:10:28;;;;;;;;;0.00;0.00;;;;;28.81;38.05;101333.69;5034524;28;45465;-65
2021/08/14 10:12:59;;;;;;;;;0.00;0.00;;;;;28.81;38.55;101336.44;5034423;28;46401;-65
2021/08/14 10:15:25;;;;;;;;;0.33;0.00;;;;;28.80;38.05;101334.66;5034286;28;45461;-65
2021/08/14 10:17:51;;;;;;;;;0.00;0.00;;;;;28.79;38.46;101335.63;5034511;28;45844;-65
2021/08/14 10:20:16;;;;;;;;;1.00;0.00;;;;;28.77;38.71;101332.09;5034600;28;45414;-65
2021/08/14 10:22:45;;;;;;;;;0.00;0.00;;;;;28.77;38.22;101329.34;5034016;28;46295;-65
2021/08/14 10:25:18;;;;;;;;;0.00;0.00;;;;;28.77;38.09;101318.41;5034477;28;45437;-65
2021/08/14 10:27:56;;;;;;;;;0.00;0.00;;;;;28.76;38.49;101322.09;5034352;28;45726;-65
2021/08/14 10:30:40;;;;;;;;;0.00;0.00;;;;;28.76;37.97;101313.88;5034415;28;45442;-65
2021/08/14 10:33:06;;;;;;;;;0.00;0.00;;;;;28.76;37.75;101310.28;5032530;28;46101;-65
2021/08/14 10:35:35;;;;;;;;;0.00;0.00;;;;;28.76;38.45;101316.63;5034123;28;45485;-64
2021/08/14 10:38:02;;;;;;;;;0.00;0.00;;;;;28.76;37.84;101310.28;5032403;28;45522;-65
2021/08/14 10:40:58;;;;;;;;;0.00;0.00;;;;;28.76;38.25;101310.28;5034185;28;45394;-65
2021/08/14 10:43:52;;;;;;;;;0.00;0.00;;;;;28.74;37.94;101302.13;5032197;28;46098;-65
2021/08/14 10:46:36;;;;;;;;;0.00;0.00;;;;;28.74;37.90;101299.38;5033742;28;45389;-65
2021/08/14 10:49:01;;;;;;;;;0.00;0.00;;;;;28.74;38.27;101299.38;5032552;28;45763;-65
2021/08/14 10:51:51;;;;;;;;;0.00;0.00;;;;;28.74;38.21;101302.13;5033936;28;45544;-65
2021/08/14 10:54:38;;;;;;;;;1.00;0.00;;;;;28.73;38.17;101295.78;5032193;28;48091;-65
2021/08/14 10:57:05;;;;;;;;;0.00;0.00;;;;;28.75;38.38;101298.44;5033790;28;45505;-65
2021/08/14 10:59:40;;;;;;;;;0.00;0.00;;;;;28.74;38.26;101296.66;5033987;28;45520;-65
2021/08/14 11:02:28;;;;;;;;;0.33;0.00;;;;;28.73;38.44;101283.94;5033929;28;45455;-65
2021/08/14 11:05:01;;;;;;;;;0.00;0.00;;;;;28.74;38.07;101285.69;5034136;28;46431;-65
2021/08/14 11:07:26;;;;;;;;;0.33;0.33;;;;;28.74;38.37;101288.44;5036324;28;45816;-65
2021/08/14 11:10:01;;;;;;;;;0.00;0.00;;;;;28.75;38.26;101286.63;5066662;28;45502;-65
2021/08/14 11:12:43;;;;;;;;;0.00;0.00;;;;;28.75;38.68;101287.50;5078189;28;45473;-65
2021/08/14 11:15:16;;;;;;;;;0.00;0.00;;;;;28.76;38.59;101283.78;5077688;28;45394;-65
2021/08/14 11:17:43;;;;;;;;;0.00;0.00;;;;;28.76;38.85;101283.78;5077550;28;45431;-66
2021/08/14 11:20:53;;;;;;;;;0.00;0.00;;;;;28.76;38.58;101282.91;5077586;28;45438;-65
2021/08/14 11:23:25;;;;;;;;;0.00;0.00;;;;;28.76;38.47;101283.78;5077472;28;45409;-65
2021/08/14 11:25:51;;;;;;;;;0.00;0.00;;;;;28.76;38.30;101281.03;5077030;28;46420;-65